Thursday, November 23, 2017, 7:25 AM GMT
Back to Local

CWVQ, Ste Anne De Bell 1

Location: , , Canada Lat: 45.433
Local Time: 7:25 AM GMT ( 7:25 GMT) Lon: -73.933
Time Zone: GMT Elev: 127 ft

Show me the last for .
Show Coded

Time T Td Feel RH Dir Speed Gust Alt SLP Vis Weather Sky Remarks
2017-11-23 07:00 21 12 10 67 300° 9 - - 30.12 0 None
2017-11-23 06:00 23 15 14 70 290° 8 - - 30.11 0 None
2017-11-23 05:00 23 15 13 70 300° 9 - - 30.12 0 None
2017-11-23 04:00 23 16 15 74 300° 7 - - 30.12 0 None
2017-11-23 03:00 24 19 14 80 300° 9 - - 30.11 0 None
2017-11-23 02:00 25 18 12 74 290° 9 17 - 30.11 0 Peak wind: 19 mph (17 kts) from 290° at 46 min
2017-11-23 01:00 26 19 13 74 290° 10 17 - 30.10 0 None
2017-11-23 00:00 29 21 20 71 290° 12 - - 30.09 0 None
2017-11-22 23:00 29 23 21 75 320° 9 - - 30.06 0 None
2017-11-22 22:00 32 26 26 78 290° 6 - - 30.04 0 None
2017-11-22 21:00 31 27 20 81 300° 12 17 - 30.03 0 None
2017-11-22 20:00 34 29 27 82 300° 8 - - 30.00 0 None
2017-11-22 19:00 35 32 27 87 280° 12 - - 29.98 0 None
2017-11-22 18:00 37 33 30 86 260° 9 - - 29.98 0 None
2017-11-22 17:00 36 34 29 91 270° 8 - - 29.97 0 None
2017-11-22 16:00 36 34 29 93 260° 8 - - 29.97 0 None
2017-11-22 15:00 35 33 27 95 260° 9 - - 29.98 0 None
2017-11-22 14:00 34 33 27 97 240° 8 - - 29.98 0 1-hr Precip Total: 0.01"
2017-11-22 13:00 34 33 28 96 240° 7 - - 29.97 0 1-hr Precip Total: 0.01"
2017-11-22 12:00 35 34 30 95 280° 6 - - 29.94 0 1-hr Precip Total: 0.03"
2017-11-22 11:00 37 35 31 95 280° 7 - - 29.92 0 1-hr Precip Total: 0.02"
2017-11-22 10:00 38 37 32 94 290° 8 - - 29.88 0 None
2017-11-22 09:00 39 38 37 93 270° 3 - - 29.86 0 1-hr Precip Total: 0.01"
2017-11-22 08:00 40 38 38 91 260° 3 - - 29.86 0 None

Support USWX by starting your Amazon purchase here.